Time;durP1;ratioP1;P1;durP2;ratioP2;P2;SDS_P1;SDS_P2;PMS_P1;PMS_P2;Temp;Humidity;BMP_temperature;BMP_pressure;BME280_temperature;BME280_humidity;BME280_pressure;Samples;Min_cycle;Max_cycle;Signal;HPM_P1;HPM_P2
2022/12/06 00:00:21;;;;;;;2.10;1.99;;;;;;;-6.61;55.13;102956.09;457456;116;922465;-79
2022/12/06 00:01:31;;;;;;;2.45;2.25;;;;;;;-6.60;55.09;102957.83;457391;116;922527;-77
2022/12/06 00:02:34;;;;;;;2.99;2.24;;;;;;;-6.60;55.21;102957.83;457106;116;923078;-78
2022/12/06 00:03:38;;;;;;;2.49;2.18;;;;;;;-6.61;55.13;102955.22;457450;116;922427;-77
2022/12/06 00:04:42;;;;;;;2.31;2.07;;;;;;;-6.61;55.22;102949.91;457286;116;922868;-78
2022/12/06 00:05:45;;;;;;;2.81;2.15;;;;;;;-6.63;55.18;102951.76;457440;116;922779;-76
2022/12/06 00:06:54;;;;;;;2.46;2.06;;;;;;;-6.64;55.11;102956.20;457390;116;922498;-78
2022/12/06 00:07:54;;;;;;;3.94;1.86;;;;;;;-6.62;55.14;102956.16;456652;116;922530;-78
2022/12/06 00:08:59;;;;;;;2.59;2.36;;;;;;;-6.64;55.22;102953.54;457493;116;922566;-77
2022/12/06 00:10:02;;;;;;;3.04;2.08;;;;;;;-6.65;55.20;102946.48;457279;116;923525;-76
2022/12/06 00:11:08;;;;;;;2.37;2.14;;;;;;;-6.65;55.10;102948.27;457441;116;923155;-76
2022/12/06 00:12:11;;;;;;;3.36;2.53;;;;;;;-6.65;55.10;102948.27;457216;116;922548;-76
2022/12/06 00:13:14;;;;;;;3.86;2.28;;;;;;;-6.64;55.30;102950.02;457448;116;922534;-77
2022/12/06 00:14:18;;;;;;;2.38;2.18;;;;;;;-6.64;55.16;102956.20;457407;116;923038;-77
2022/12/06 00:15:21;;;;;;;2.55;2.08;;;;;;;-6.64;55.29;102952.67;457386;116;922613;-77
2022/12/06 00:16:25;;;;;;;2.35;2.15;;;;;;;-6.64;55.29;102953.54;457485;114;922945;-76
2022/12/06 00:17:28;;;;;;;2.53;2.15;;;;;;;-6.63;55.29;102952.63;449440;118;923042;-77
2022/12/06 00:18:33;;;;;;;2.76;2.25;;;;;;;-6.64;55.21;102948.23;449509;118;922721;-76
2022/12/06 00:19:36;;;;;;;2.75;2.42;;;;;;;-6.63;55.29;102949.11;440736;120;922638;-75
2022/12/06 00:20:40;;;;;;;2.68;2.42;;;;;;;-6.63;55.23;102943.80;440838;120;923000;-77
2022/12/06 00:21:43;;;;;;;2.64;2.44;;;;;;;-6.62;55.24;102945.55;441366;118;922641;-76
2022/12/06 00:22:46;;;;;;;3.05;2.61;;;;;;;-6.62;55.23;102943.77;449454;118;922501;-77
2022/12/06 00:23:54;;;;;;;2.91;2.36;;;;;;;-6.62;55.34;102941.11;449513;118;922544;-76
2022/12/06 00:24:58;;;;;;;2.60;2.35;;;;;;;-6.63;55.27;102944.67;449327;118;922554;-78
2022/12/06 00:26:02;;;;;;;3.23;2.63;;;;;;;-6.63;55.33;102942.02;449471;118;922630;-79
2022/12/06 00:27:05;;;;;;;3.05;2.83;;;;;;;-6.63;55.27;102939.37;449392;118;923386;-75
2022/12/06 00:28:08;;;;;;;2.45;2.25;;;;;;;-6.63;55.36;102941.15;449516;118;923079;-77
2022/12/06 00:29:14;;;;;;;2.77;2.20;;;;;;;-6.63;55.30;102943.80;449534;118;922495;-77
2022/12/06 00:30:17;;;;;;;2.39;2.17;;;;;;;-6.64;55.36;102942.05;448893;118;922478;-77
2022/12/06 00:31:22;;;;;;;3.17;2.54;;;;;;;-6.65;55.34;102941.19;449433;118;922502;-77
2022/12/06 00:32:25;;;;;;;4.58;2.51;;;;;;;-6.65;55.29;102943.84;449292;118;922681;-77
2022/12/06 00:33:29;;;;;;;2.43;1.98;;;;;;;-6.66;55.39;102942.09;449562;118;923146;-78
2022/12/06 00:34:32;;;;;;;2.74;2.30;;;;;;;-6.67;55.26;102943.00;449450;118;922615;-77
2022/12/06 00:35:35;;;;;;;3.27;2.16;;;;;;;-6.67;55.39;102943.00;449535;118;922466;-78
2022/12/06 00:36:39;;;;;;;2.29;2.09;;;;;;;-6.67;55.39;102940.35;449552;118;922490;-76
2022/12/06 00:37:43;;;;;;;2.63;2.38;;;;;;;-6.67;55.41;102936.86;449375;118;923007;-78
2022/12/06 00:38:46;;;;;;;3.71;2.77;;;;;;;-6.67;55.32;102928.91;449502;118;922839;-78
2022/12/06 00:39:49;;;;;;;2.23;2.03;;;;;;;-6.68;55.38;102940.42;449390;118;922468;-78
2022/12/06 00:41:06;;;;;;;3.27;2.22;;;;;;;-6.69;55.40;102936.90;449507;118;922564;-76
2022/12/06 00:42:09;;;;;;;4.41;2.47;;;;;;;-6.69;55.31;102933.38;449283;118;922658;-77
2022/12/06 00:43:13;;;;;;;3.22;2.21;;;;;;;-6.70;55.39;102935.16;449521;118;922695;-76
2022/12/06 00:44:16;;;;;;;4.23;2.74;;;;;;;-6.71;55.42;102930.76;449461;118;922991;-77
2022/12/06 00:45:19;;;;;;;3.21;2.22;;;;;;;-6.72;55.40;102925.48;449421;118;923508;-77
2022/12/06 00:46:26;;;;;;;2.58;2.38;;;;;;;-6.72;55.43;102936.10;449545;118;922463;-76
2022/12/06 00:47:29;;;;;;;2.97;2.21;;;;;;;-6.73;55.48;102932.61;449293;118;923020;-77
2022/12/06 00:48:32;;;;;;;2.47;2.19;;;;;;;-6.76;55.48;102922.95;449506;118;922579;-77
2022/12/06 00:49:35;;;;;;;2.96;2.23;;;;;;;-6.75;55.52;102923.82;449525;118;922562;-77
2022/12/06 00:50:38;;;;;;;2.24;2.03;;;;;;;-6.75;55.59;102915.86;449496;118;922576;-77
2022/12/06 00:51:41;;;;;;;2.42;2.22;;;;;;;-6.75;55.61;102923.82;449533;118;922463;-78
2022/12/06 00:52:44;;;;;;;3.39;2.18;;;;;;;-6.75;55.58;102927.34;449542;118;922462;-77
2022/12/06 00:53:47;;;;;;;3.09;2.27;;;;;;;-6.76;55.57;102914.12;449535;118;922621;-77
2022/12/06 00:54:50;;;;;;;2.83;2.55;;;;;;;-6.78;55.59;102914.16;449435;118;922629;-76
2022/12/06 00:55:54;;;;;;;3.41;3.04;;;;;;;-6.78;55.54;102915.97;449487;118;922504;-76
2022/12/06 00:56:57;;;;;;;2.89;2.38;;;;;;;-6.78;55.56;102921.28;449362;118;922507;-77
2022/12/06 00:58:00;;;;;;;3.22;2.92;;;;;;;-6.77;55.69;102917.68;449437;118;930420;-78
2022/12/06 00:59:05;;;;;;;2.64;2.42;;;;;;;-6.78;55.72;102913.32;449514;118;922527;-77
2022/12/06 01:00:09;;;;;;;3.69;2.72;;;;;;;-6.77;55.70;102917.68;449319;118;922839;-77
2022/12/06 01:01:15;;;;;;;3.36;2.77;;;;;;;-6.78;55.59;102913.32;449386;118;930470;-79
2022/12/06 01:02:18;;;;;;;3.49;3.04;;;;;;;-6.77;55.62;102909.72;449293;118;922606;-77
2022/12/06 01:03:21;;;;;;;3.86;2.75;;;;;;;-6.77;55.71;102915.90;449535;118;922894;-78
2022/12/06 01:04:24;;;;;;;2.84;2.58;;;;;;;-6.76;55.71;102912.34;449447;118;923256;-77
2022/12/06 01:05:28;;;;;;;2.61;2.41;;;;;;;-6.78;55.68;102914.16;449516;118;923780;-78
2022/12/06 01:06:34;;;;;;;2.95;2.59;;;;;;;-6.78;55.64;102918.63;449449;118;922496;-77
2022/12/06 01:07:37;;;;;;;2.84;2.54;;;;;;;-6.79;55.63;102911.58;449386;118;922953;-76
2022/12/06 01:08:41;;;;;;;2.92;2.60;;;;;;;-6.80;55.64;102913.36;449613;118;922315;-76
2022/12/06 01:09:44;;;;;;;2.54;2.25;;;;;;;-6.81;55.68;102911.61;449567;118;922520;-77
2022/12/06 01:10:53;;;;;;;2.49;2.27;;;;;;;-6.81;55.83;102910.74;449647;118;922906;-77
2022/12/06 01:11:57;;;;;;;3.01;2.41;;;;;;;-6.81;55.83;102910.74;449311;118;922388;-74
2022/12/06 01:13:00;;;;;;;3.09;2.25;;;;;;;-6.81;55.80;102911.61;449491;118;922799;-77
2022/12/06 01:14:04;;;;;;;2.46;2.26;;;;;;;-6.82;55.81;102912.52;449523;118;930447;-78
2022/12/06 01:15:08;;;;;;;2.51;2.23;;;;;;;-6.82;55.82;102903.69;449372;118;923217;-78
2022/12/06 01:16:15;;;;;;;2.35;2.15;;;;;;;-6.82;55.84;102906.34;449282;118;930284;-77
2022/12/06 01:17:18;;;;;;;2.60;2.23;;;;;;;-6.84;55.81;102905.55;452197;115;922608;-77
2022/12/06 01:18:21;;;;;;;2.56;2.34;;;;;;;-6.85;55.74;102909.98;457825;116;922873;-77
2022/12/06 01:19:24;;;;;;;3.26;2.14;;;;;;;-6.85;55.69;102906.45;458637;116;922044;-76
2022/12/06 01:20:27;;;;;;;2.32;2.11;;;;;;;-6.87;55.75;102908.27;458705;116;922134;-78
2022/12/06 01:21:30;;;;;;;2.45;2.25;;;;;;;-6.89;55.79;102916.27;458659;116;922270;-78
2022/12/06 01:22:34;;;;;;;3.21;2.58;;;;;;;-6.89;55.83;102907.47;458586;116;922298;-77
2022/12/06 01:23:37;;;;;;;3.49;2.44;;;;;;;-6.90;55.83;102903.95;458443;116;922127;-77
2022/12/06 01:24:40;;;;;;;2.41;2.21;;;;;;;-6.90;55.87;102908.37;458483;116;930701;-76
2022/12/06 01:25:51;;;;;;;2.51;2.24;;;;;;;-6.89;55.86;102913.61;458621;116;922030;-76
2022/12/06 01:26:54;;;;;;;2.93;2.38;;;;;;;-6.90;55.81;102911.03;458069;116;922601;-78
2022/12/06 01:27:57;;;;;;;3.22;2.44;;;;;;;-6.91;55.88;102904.86;458750;115;929792;-75
2022/12/06 01:29:02;;;;;;;2.74;2.27;;;;;;;-6.91;55.91;102919.90;458685;113;922118;-78
2022/12/06 01:30:06;;;;;;;2.54;2.34;;;;;;;-6.94;55.85;102904.93;458546;115;922674;-75
2022/12/06 01:31:09;;;;;;;3.12;2.60;;;;;;;-6.94;55.95;102910.23;458670;115;922203;-77
2022/12/06 01:32:12;;;;;;;3.36;2.80;;;;;;;-6.96;55.94;102906.78;458587;115;922174;-76
2022/12/06 01:33:15;;;;;;;2.94;2.68;;;;;;;-6.96;55.95;102908.56;458689;116;921872;-76
2022/12/06 01:34:18;;;;;;;2.56;2.36;;;;;;;-6.97;56.00;102912.13;458725;116;922028;-76
2022/12/06 01:35:22;;;;;;;4.46;2.77;;;;;;;-6.98;55.86;102902.42;458709;116;922078;-76
2022/12/06 01:36:25;;;;;;;2.91;2.69;;;;;;;-6.99;55.91;102905.98;458668;115;922021;-78
2022/12/06 01:37:29;;;;;;;3.19;2.74;;;;;;;-7.00;56.02;102909.58;458703;116;922222;-77
2022/12/06 01:38:32;;;;;;;3.47;3.09;;;;;;;-7.02;56.05;102899.01;457602;116;930298;-78
2022/12/06 01:39:35;;;;;;;3.51;3.20;;;;;;;-7.02;55.95;102900.78;457701;116;930383;-76
2022/12/06 01:40:47;;;;;;;3.48;3.21;;;;;;;-7.02;56.06;102901.66;457716;116;922525;-77
2022/12/06 01:41:50;;;;;;;4.89;3.39;;;;;;;-7.03;56.10;102899.05;457474;116;922653;-77
2022/12/06 01:42:53;;;;;;;4.21;3.28;;;;;;;-7.05;56.10;102898.21;457652;116;922669;-78
2022/12/06 01:43:56;;;;;;;3.50;3.23;;;;;;;-7.06;56.03;102901.80;457656;115;922450;-78
2022/12/06 01:45:00;;;;;;;3.76;3.36;;;;;;;-7.07;56.03;102898.28;457662;115;922503;-77
2022/12/06 01:46:28;;;;;;;3.18;2.86;;;;;;;-7.08;56.14;102900.97;457562;116;922404;-77
2022/12/06 01:47:41;;;;;;;3.00;2.62;;;;;;;-7.09;56.08;102899.22;457408;116;922530;-77
2022/12/06 01:48:45;;;;;;;2.74;2.47;;;;;;;-7.13;56.20;102894.94;457430;116;922638;-78
2022/12/06 01:50:00;;;;;;;3.41;3.11;;;;;;;-7.17;56.13;102889.70;457549;116;922448;-78
2022/12/06 01:51:06;;;;;;;3.18;2.84;;;;;;;-7.18;56.29;102889.77;449714;117;922793;-78
2022/12/06 01:52:12;;;;;;;3.59;3.24;;;;;;;-7.21;56.24;102888.06;456526;115;922504;-78
2022/12/06 01:53:17;;;;;;;4.36;3.62;;;;;;;-7.22;56.36;102890.75;457423;116;922476;-77
2022/12/06 01:54:24;;;;;;;3.29;3.00;;;;;;;-7.26;56.29;102887.34;456858;115;922475;-78
2022/12/06 01:55:31;;;;;;;4.23;3.67;;;;;;;-7.28;56.41;102894.48;457398;116;922542;-76
2022/12/06 01:56:35;;;;;;;4.91;3.27;;;;;;;-7.29;56.40;102895.39;457336;115;922316;-79
2022/12/06 01:57:38;;;;;;;5.53;3.25;;;;;;;-7.30;56.44;102896.30;457365;116;922501;-78
2022/12/06 01:58:46;;;;;;;3.01;2.70;;;;;;;-7.30;56.44;102904.25;457320;116;922499;-75
2022/12/06 01:59:49;;;;;;;3.71;3.14;;;;;;;-7.31;56.61;102896.33;457343;116;922496;-78
2022/12/06 02:00:52;;;;;;;2.95;2.57;;;;;;;-7.30;56.64;102904.25;457565;116;922573;-77
2022/12/06 02:01:56;;;;;;;3.02;2.74;;;;;;;-7.29;56.55;102903.34;457472;116;922511;-75
2022/12/06 02:03:01;;;;;;;3.58;2.75;;;;;;;-7.29;56.59;102898.04;457433;116;922609;-77
2022/12/06 02:04:04;;;;;;;3.08;2.64;;;;;;;-7.28;56.61;102904.21;457302;115;930502;-77
2022/12/06 02:05:09;;;;;;;3.19;2.31;;;;;;;-7.28;56.71;102902.44;457384;115;922902;-78
2022/12/06 02:06:12;;;;;;;3.38;2.66;;;;;;;-7.26;56.61;102907.67;457456;116;922553;-77
2022/12/06 02:07:16;;;;;;;3.17;2.64;;;;;;;-7.26;56.73;102905.89;457442;116;923002;-77
2022/12/06 02:08:20;;;;;;;3.62;2.77;;;;;;;-7.25;56.70;102906.76;457488;116;922682;-77
2022/12/06 02:09:26;;;;;;;2.51;2.31;;;;;;;-7.25;56.67;102910.28;457411;115;922739;-78
2022/12/06 02:10:30;;;;;;;2.89;2.30;;;;;;;-7.23;56.81;102904.95;457411;116;922525;-78
2022/12/06 02:11:33;;;;;;;2.54;2.32;;;;;;;-7.22;56.68;102909.31;457492;115;922916;-78
2022/12/06 02:12:38;;;;;;;3.34;2.38;;;;;;;-7.22;56.67;102906.66;457330;115;922707;-77
2022/12/06 02:13:41;;;;;;;2.77;2.23;;;;;;;-7.21;56.78;102911.05;457511;115;922591;-77
2022/12/06 02:14:47;;;;;;;3.26;2.35;;;;;;;-7.22;56.67;102910.18;457460;116;922888;-77
2022/12/06 02:16:03;;;;;;;2.51;2.22;;;;;;;-7.21;56.69;102903.97;457314;116;922528;-77
2022/12/06 02:17:16;;;;;;;3.59;2.88;;;;;;;-7.19;56.80;102911.89;463531;114;923091;-77
2022/12/06 02:18:34;;;;;;;3.13;2.56;;;;;;;-7.20;56.82;102913.66;465476;113;922467;-77
2022/12/06 02:19:49;;;;;;;3.75;2.66;;;;;;;-7.20;56.80;102912.80;465473;113;922556;-77
2022/12/06 02:21:02;;;;;;;2.71;2.44;;;;;;;-7.20;56.84;102905.71;465604;114;922816;-77
2022/12/06 02:22:18;;;;;;;3.07;2.63;;;;;;;-7.22;56.86;102910.18;465437;113;922937;-79
2022/12/06 02:23:40;;;;;;;2.26;2.06;;;;;;;-7.22;56.84;102904.87;465530;114;922510;-77
2022/12/06 02:25:18;;;;;;;3.82;2.41;;;;;;;-7.22;56.96;102904.01;465579;113;922536;-77
2022/12/06 02:26:37;;;;;;;4.28;2.26;;;;;;;-7.23;56.99;102903.17;431820;122;923360;-78
2022/12/06 02:27:58;;;;;;;3.53;2.48;;;;;;;-7.23;57.03;102902.30;431753;122;922914;-77
2022/12/06 02:29:14;;;;;;;3.41;2.31;;;;;;;-7.25;57.07;102899.68;456458;113;922758;-77
2022/12/06 02:30:39;;;;;;;2.13;1.86;;;;;;;-7.26;57.09;102897.94;465556;114;922478;-77
2022/12/06 02:31:51;;;;;;;2.14;1.94;;;;;;;-7.27;57.11;102893.55;465599;114;923115;-77
2022/12/06 02:33:04;;;;;;;2.26;2.00;;;;;;;-7.27;57.18;102904.14;465537;114;922587;-78
2022/12/06 02:34:32;;;;;;;2.64;2.34;;;;;;;-7.27;57.17;102895.33;465574;114;922544;-78
2022/12/06 02:35:51;;;;;;;4.89;2.56;;;;;;;-7.28;57.08;102897.13;465629;113;922617;-77
2022/12/06 02:37:00;;;;;;;3.00;2.55;;;;;;;-7.29;57.15;102897.17;465672;113;922837;-77
2022/12/06 02:38:10;;;;;;;2.95;2.27;;;;;;;-7.29;57.22;102900.69;465610;113;922575;-77
2022/12/06 02:39:39;;;;;;;3.21;2.33;;;;;;;-7.30;57.23;102893.64;465534;114;922854;-77
2022/12/06 02:40:46;;;;;;;2.52;2.32;;;;;;;-7.31;57.23;102894.55;465543;114;922504;-77
2022/12/06 02:42:07;;;;;;;4.04;2.19;;;;;;;-7.33;57.07;102901.67;465588;113;923295;-77
2022/12/06 02:43:18;;;;;;;;;;;;;;;-7.34;57.08;102899.08;469353;114;922057;-77
2022/12/06 02:44:27;;;;;;;2.35;2.11;;;;;;;-7.38;57.16;102903.58;465448;113;922128;-77
2022/12/06 02:45:34;;;;;;;1.76;1.66;;;;;;;-7.43;57.14;102899.33;465613;113;922493;-76
2022/12/06 02:46:40;;;;;;;3.59;2.44;;;;;;;-7.47;57.33;102898.55;465562;113;922548;-76
2022/12/06 02:47:45;;;;;;;2.44;2.02;;;;;;;-7.48;57.31;102907.41;465545;114;922553;-77
2022/12/06 02:48:52;;;;;;;2.41;1.88;;;;;;;-7.49;57.42;102895.06;465564;114;922488;-78
2022/12/06 02:49:57;;;;;;;2.58;2.29;;;;;;;-7.48;57.42;102896.81;465548;114;922496;-77
2022/12/06 02:51:04;;;;;;;2.43;2.07;;;;;;;-7.48;57.46;102902.11;465579;114;922517;-75
2022/12/06 02:52:08;;;;;;;2.39;2.13;;;;;;;-7.47;57.36;102893.25;465573;114;922603;-77
2022/12/06 02:53:14;;;;;;;2.37;2.14;;;;;;;-7.46;57.37;102891.48;465708;114;922281;-77
2022/12/06 02:54:18;;;;;;;3.11;2.79;;;;;;;-7.45;57.39;102887.92;465509;114;922908;-78
2022/12/06 02:55:23;;;;;;;2.49;2.24;;;;;;;-7.44;57.39;102889.67;465640;114;922565;-77
2022/12/06 02:56:27;;;;;;;2.78;2.56;;;;;;;-7.44;57.41;102889.67;465607;113;923430;-76
2022/12/06 02:57:45;;;;;;;2.11;1.95;;;;;;;-7.43;57.26;102888.73;465670;114;922503;-76
2022/12/06 02:58:49;;;;;;;3.60;2.43;;;;;;;-7.43;57.35;102884.30;465559;114;922641;-77
2022/12/06 02:59:53;;;;;;;2.36;2.16;;;;;;;-7.43;57.31;102884.30;465732;114;923034;-76
2022/12/06 03:01:01;;;;;;;2.92;2.34;;;;;;;-7.43;57.39;102889.59;465669;113;922494;-77
2022/12/06 03:02:08;;;;;;;2.87;2.46;;;;;;;-7.42;57.42;102887.82;465548;114;922532;-77
2022/12/06 03:03:49;;;;;;;2.76;2.13;;;;;;;-7.41;57.35;102886.91;465558;114;923072;-77
2022/12/06 03:05:02;;;;;;;2.37;2.13;;;;;;;-7.42;57.36;102891.34;465246;113;922483;-76
2022/12/06 03:06:25;;;;;;;2.44;2.18;;;;;;;-7.44;57.38;102889.67;465603;114;923499;-76
2022/12/06 03:07:41;;;;;;;2.49;2.29;;;;;;;-7.46;57.32;102894.13;465515;114;922443;-77
2022/12/06 03:08:50;;;;;;;3.08;2.61;;;;;;;-7.47;57.49;102889.73;465533;114;922581;-77
2022/12/06 03:10:15;;;;;;;2.75;2.53;;;;;;;-7.48;57.40;102902.11;465502;114;922821;-77
2022/12/06 03:11:18;;;;;;;3.74;2.64;;;;;;;-7.48;57.49;102896.81;465541;114;922913;-77
2022/12/06 03:12:28;;;;;;;2.76;2.39;;;;;;;-7.48;57.57;102899.45;465752;114;922517;-77
2022/12/06 03:13:44;;;;;;;2.56;2.27;;;;;;;-7.47;57.58;102895.03;465165;114;922693;-77
2022/12/06 03:14:53;;;;;;;2.47;2.27;;;;;;;-7.48;57.53;102888.86;465472;114;930378;-78
2022/12/06 03:16:18;;;;;;;2.70;2.47;;;;;;;-7.47;57.50;102885.31;465545;114;922477;-77
2022/12/06 03:17:39;;;;;;;2.22;1.99;;;;;;;-7.47;57.58;102892.38;465603;113;922961;-79
2022/12/06 03:18:48;;;;;;;2.28;2.08;;;;;;;-7.47;57.60;102885.31;465347;113;922549;-78
2022/12/06 03:20:01;;;;;;;4.21;2.03;;;;;;;-7.48;57.56;102886.21;465370;114;922529;-77
2022/12/06 03:21:11;;;;;;;2.02;1.80;;;;;;;-7.49;57.53;102880.95;465438;113;922580;-77
2022/12/06 03:22:24;;;;;;;2.41;1.80;;;;;;;-7.51;57.61;102875.72;465403;114;922942;-78
2022/12/06 03:23:33;;;;;;;3.73;2.13;;;;;;;-7.51;57.59;102878.37;465360;114;922860;-77
2022/12/06 03:24:39;;;;;;;3.22;2.91;;;;;;;-7.50;57.60;102881.89;465374;113;922861;-79
2022/12/06 03:25:45;;;;;;;4.01;3.63;;;;;;;-7.50;57.64;102880.11;465380;114;922566;-77
2022/12/06 03:26:51;;;;;;;4.25;3.83;;;;;;;-7.50;57.70;102882.77;465394;114;922597;-79
2022/12/06 03:27:56;;;;;;;5.53;4.34;;;;;;;-7.48;57.74;102874.74;465361;114;923280;-79
2022/12/06 03:29:02;;;;;;;4.44;4.04;;;;;;;-7.48;57.66;102880.91;465418;114;922466;-76
2022/12/06 03:30:08;;;;;;;4.18;3.81;;;;;;;-7.48;57.51;102878.27;465381;114;922698;-79
2022/12/06 03:31:14;;;;;;;4.52;4.12;;;;;;;-7.49;57.51;102878.30;465391;114;922597;-77
2022/12/06 03:32:21;;;;;;;3.63;3.33;;;;;;;-7.51;57.46;102877.50;465368;114;923177;-78
2022/12/06 03:33:27;;;;;;;4.64;2.80;;;;;;;-7.52;57.40;102870.45;465392;114;922488;-78
2022/12/06 03:34:36;;;;;;;2.91;2.57;;;;;;;-7.53;57.43;102876.66;465369;114;922543;-76
2022/12/06 03:35:40;;;;;;;2.86;2.66;;;;;;;-7.54;57.37;102878.44;465341;113;922688;-77
2022/12/06 03:36:47;;;;;;;2.50;2.30;;;;;;;-7.56;57.50;102874.98;465414;113;922520;-76
2022/12/06 03:37:53;;;;;;;4.74;2.39;;;;;;;-7.56;57.45;102882.05;465413;114;922507;-78
2022/12/06 03:39:02;;;;;;;2.04;1.93;;;;;;;-7.57;57.55;102878.53;465368;113;922724;-79
2022/12/06 03:40:21;;;;;;;2.38;2.13;;;;;;;-7.56;57.50;102874.11;465428;114;922660;-75
2022/12/06 03:41:27;;;;;;;2.21;2.04;;;;;;;-7.56;57.42;102876.76;465397;114;922535;-78
2022/12/06 03:42:31;;;;;;;2.66;2.14;;;;;;;-7.58;57.46;102876.79;465430;114;922588;-78
2022/12/06 03:43:34;;;;;;;2.95;2.66;;;;;;;-7.60;57.49;102875.95;465503;113;923066;-77
2022/12/06 03:44:37;;;;;;;2.56;2.36;;;;;;;-7.62;57.49;102883.97;465503;114;922498;-77
2022/12/06 03:45:53;;;;;;;2.90;2.11;;;;;;;-7.62;57.49;102875.15;465603;114;922458;-77
2022/12/06 03:47:03;;;;;;;3.57;2.32;;;;;;;-7.62;57.52;102872.50;465417;114;922519;-77
2022/12/06 03:48:13;;;;;;;3.10;2.58;;;;;;;-7.64;57.50;102872.53;465367;113;922955;-76
2022/12/06 03:49:20;;;;;;;3.07;2.31;;;;;;;-7.66;57.50;102876.12;465750;114;922356;-78
2022/12/06 03:50:33;;;;;;;2.28;1.96;;;;;;;-7.68;57.58;102885.91;465420;113;922565;-78
2022/12/06 03:51:39;;;;;;;2.43;2.23;;;;;;;-7.71;57.63;102878.03;465432;113;922549;-78
2022/12/06 03:52:42;;;;;;;2.64;2.18;;;;;;;-7.72;57.65;102882.45;465428;114;922686;-79
2022/12/06 03:53:49;;;;;;;2.56;2.36;;;;;;;-7.72;57.67;102884.27;465597;114;922558;-77
2022/12/06 03:54:52;;;;;;;2.52;2.32;;;;;;;-7.70;57.80;102882.42;465414;114;922612;-77
2022/12/06 03:55:55;;;;;;;2.78;2.54;;;;;;;-7.70;57.72;102888.59;465577;114;922927;-78
2022/12/06 03:56:58;;;;;;;3.07;2.84;;;;;;;-7.69;57.68;102887.69;465609;114;922677;-80
2022/12/06 03:58:02;;;;;;;3.11;2.81;;;;;;;-7.69;57.77;102879.74;465579;114;922527;-80
2022/12/06 03:59:07;;;;;;;4.17;2.83;;;;;;;-7.67;57.78;102882.36;465568;114;922546;-77
2022/12/06 04:00:12;;;;;;;3.18;2.72;;;;;;;-7.66;57.68;102884.06;465394;114;922448;-78
2022/12/06 04:01:15;;;;;;;2.89;2.59;;;;;;;-7.65;57.76;102883.16;465453;114;922854;-79
2022/12/06 04:02:19;;;;;;;2.57;2.37;;;;;;;-7.65;57.75;102877.86;465548;114;922526;-78
2022/12/06 04:03:22;;;;;;;2.75;2.55;;;;;;;-7.66;57.65;102876.99;465636;114;922524;-78
2022/12/06 04:04:25;;;;;;;3.44;2.86;;;;;;;-7.66;57.62;102881.42;465618;113;923106;-79
2022/12/06 04:05:28;;;;;;;2.81;2.61;;;;;;;-7.65;57.64;102885.81;465638;114;923301;-78
2022/12/06 04:06:31;;;;;;;2.40;2.21;;;;;;;-7.66;57.67;102876.99;465539;113;922474;-77
2022/12/06 04:07:35;;;;;;;2.49;2.29;;;;;;;-7.66;57.73;102874.34;465595;114;922544;-77
2022/12/06 04:08:38;;;;;;;2.50;2.27;;;;;;;-7.65;57.74;102881.39;465614;113;923177;-78
2022/12/06 04:09:51;;;;;;;2.01;1.89;;;;;;;-7.65;57.70;102881.39;465499;113;923167;-77
2022/12/06 04:10:54;;;;;;;2.74;2.25;;;;;;;-7.65;57.81;102872.56;465420;114;922624;-78
2022/12/06 04:11:57;;;;;;;2.50;2.17;;;;;;;-7.64;57.76;102882.26;465614;114;922482;-79
2022/12/06 04:13:00;;;;;;;2.31;2.11;;;;;;;-7.64;57.83;102869.02;465653;114;922646;-77
2022/12/06 04:14:04;;;;;;;2.71;2.02;;;;;;;-7.66;57.71;102876.12;465533;114;923680;-77
2022/12/06 04:15:08;;;;;;;2.81;2.00;;;;;;;-7.67;57.71;102872.63;465565;114;925501;-76
2022/12/06 04:18:56;;;;;;;1.97;1.82;;;;;;;-7.73;57.87;102869.28;464462;113;923256;-78
2022/12/06 04:19:59;;;;;;;2.15;1.95;;;;;;;-7.77;57.77;102873.77;463861;114;922415;-77
2022/12/06 04:23:48;;;;;;;2.11;1.92;;;;;;;-7.86;57.80;102873.16;458614;115;928232;-80
2022/12/06 04:24:51;;;;;;;2.23;2.08;;;;;;;-7.91;57.83;102865.34;459682;114;922802;-77
2022/12/06 04:25:54;;;;;;;2.74;2.19;;;;;;;-7.92;57.88;102866.25;463825;114;922804;-76
2022/12/06 04:28:40;;;;;;;2.69;2.38;;;;;;;-7.94;57.93;102873.38;463820;114;922630;-79
2022/12/06 04:38:58;;;;;;;3.49;2.43;;;;;;;-8.10;58.43;102862.30;463674;114;923160;-77
2022/12/06 04:40:01;;;;;;;2.51;2.31;;;;;;;-8.10;58.39;102859.66;463782;114;922570;-77
2022/12/06 04:41:05;;;;;;;2.52;2.32;;;;;;;-8.09;58.47;102857.88;463816;114;922632;-79
2022/12/06 04:43:41;;;;;;;3.36;2.46;;;;;;;-8.10;58.49;102851.72;463634;114;922317;-75
2022/12/06 04:44:44;;;;;;;3.42;2.56;;;;;;;-8.12;58.41;102856.20;463722;114;922552;-77
2022/12/06 04:45:48;;;;;;;3.83;2.79;;;;;;;-8.11;58.58;102851.78;463838;114;922543;-78
2022/12/06 04:46:50;;;;;;;3.92;3.44;;;;;;;-8.12;58.61;102856.20;463908;114;922452;-77
2022/12/06 04:47:54;;;;;;;3.72;3.41;;;;;;;-8.13;58.58;102848.30;463896;114;922543;-79
2022/12/06 04:48:57;;;;;;;3.98;3.61;;;;;;;-8.13;58.56;102849.17;463870;114;922456;-76
2022/12/06 04:50:00;;;;;;;3.54;3.22;;;;;;;-8.13;58.38;102848.30;463864;114;922799;-78
2022/12/06 04:51:04;;;;;;;4.23;3.74;;;;;;;-8.13;58.38;102848.30;463793;114;922974;-78
2022/12/06 04:52:08;;;;;;;3.95;3.49;;;;;;;-8.15;58.51;102843.03;463816;114;922648;-77
2022/12/06 04:53:12;;;;;;;3.91;3.42;;;;;;;-8.14;58.60;102841.26;463795;114;922492;-77
2022/12/06 04:54:15;;;;;;;3.77;3.36;;;;;;;-8.13;58.50;102849.17;463832;114;922537;-78
2022/12/06 04:55:18;;;;;;;4.65;3.96;;;;;;;-8.13;58.50;102848.30;463827;114;922541;-77
2022/12/06 04:56:21;;;;;;;5.92;5.33;;;;;;;-8.15;58.51;102848.33;463848;114;922432;-78
2022/12/06 04:57:24;;;;;;;5.87;5.37;;;;;;;-8.15;58.46;102845.68;463897;114;922984;-77
2022/12/06 04:58:27;;;;;;;8.14;7.36;;;;;;;-8.13;58.57;102850.94;463864;114;922425;-77
2022/12/06 04:59:30;;;;;;;7.53;6.56;;;;;;;-8.14;58.59;102841.26;463852;114;922445;-78
2022/12/06 05:00:33;;;;;;;6.84;6.14;;;;;;;-8.13;58.59;102849.17;463838;114;922868;-77
2022/12/06 05:01:36;;;;;;;6.70;6.08;;;;;;;-8.14;58.59;102842.12;463845;114;922488;-77
2022/12/06 05:02:39;;;;;;;4.79;4.38;;;;;;;-8.13;58.65;102849.17;464071;114;922561;-77
2022/12/06 05:03:43;;;;;;;4.01;3.69;;;;;;;-8.12;58.58;102848.27;465142;114;922030;-76
2022/12/06 05:04:47;;;;;;;3.41;3.11;;;;;;;-8.11;58.66;102849.13;464945;114;922195;-76
2022/12/06 05:05:50;;;;;;;6.06;3.84;;;;;;;-8.10;58.65;102850.84;465150;114;922019;-77
2022/12/06 05:06:53;;;;;;;3.12;2.78;;;;;;;-8.11;58.58;102847.36;465127;114;922276;-75
2022/12/06 05:07:57;;;;;;;3.82;3.04;;;;;;;-8.10;58.67;102854.36;465170;114;922128;-76
2022/12/06 05:09:00;;;;;;;4.04;2.82;;;;;;;-8.11;58.59;102844.71;464924;114;922554;-76
2022/12/06 05:10:04;;;;;;;3.72;3.19;;;;;;;-8.12;58.55;102853.55;465050;114;922207;-76
2022/12/06 05:11:07;;;;;;;5.78;3.33;;;;;;;-8.11;58.65;102850.00;464944;114;921982;-75
2022/12/06 05:12:10;;;;;;;4.40;4.01;;;;;;;-8.12;58.64;102852.69;465072;114;922187;-76
2022/12/06 05:13:14;;;;;;;7.93;6.94;;;;;;;-8.13;58.63;102854.46;464994;114;922205;-77
2022/12/06 05:14:17;;;;;;;6.55;5.95;;;;;;;-8.15;58.56;102850.97;464804;114;921971;-78
2022/12/06 05:15:20;;;;;;;8.41;7.66;;;;;;;-8.17;58.55;102844.88;464976;114;921953;-78
2022/12/06 05:16:26;;;;;;;9.67;8.63;;;;;;;-8.17;58.68;102850.16;462978;114;922242;-75
2022/12/06 05:17:29;;;;;;;8.67;7.88;;;;;;;-8.16;58.73;102851.88;456797;116;922214;-77
2022/12/06 05:18:32;;;;;;;8.40;7.51;;;;;;;-8.15;58.75;102850.97;456845;116;922708;-77
2022/12/06 05:19:35;;;;;;;8.18;7.53;;;;;;;-8.14;58.71;102850.07;462284;114;922221;-78
2022/12/06 05:20:39;;;;;;;8.48;6.93;;;;;;;-8.11;58.74;102854.42;462456;115;930089;-76
2022/12/06 05:21:42;;;;;;;7.62;5.80;;;;;;;-8.13;58.72;102848.30;462496;115;922190;-76
2022/12/06 05:22:45;;;;;;;5.50;5.03;;;;;;;-8.13;58.60;102854.46;462385;115;922740;-78